sensor_id;sensor_type;location;lat;lon;timestamp;pressure;altitude;pressure_sealevel;temperature;humidity
9139;BME280;4604;48.616;9.548;2023-11-18T00:00:10;97745.78;;;5.27;100.00
9139;BME280;4604;48.616;9.548;2023-11-18T00:02:38;97740.63;;;5.26;100.00
9139;BME280;4604;48.616;9.548;2023-11-18T00:05:08;97736.41;;;5.23;100.00
9139;BME280;4604;48.616;9.548;2023-11-18T00:07:34;97737.38;;;5.22;100.00
9139;BME280;4604;48.616;9.548;2023-11-18T00:10:03;97747.47;;;5.28;100.00
9139;BME280;4604;48.616;9.548;2023-11-18T00:12:31;97726.63;;;5.11;100.00
9139;BME280;4604;48.616;9.548;2023-11-18T00:14:59;97739.09;;;5.22;100.00
9139;BME280;4604;48.616;9.548;2023-11-18T00:17:28;97737.94;;;5.27;100.00
9139;BME280;4604;48.616;9.548;2023-11-18T00:19:55;97733.28;;;5.32;100.00
9139;BME280;4604;48.616;9.548;2023-11-18T00:22:21;97739.78;;;5.25;100.00
9139;BME280;4604;48.616;9.548;2023-11-18T00:24:48;97731.69;;;5.30;100.00
9139;BME280;4604;48.616;9.548;2023-11-18T00:27:16;97737.25;;;5.24;100.00
9139;BME280;4604;48.616;9.548;2023-11-18T00:29:42;97731.19;;;5.23;100.00
9139;BME280;4604;48.616;9.548;2023-11-18T00:32:09;97728.38;;;5.26;100.00
9139;BME280;4604;48.616;9.548;2023-11-18T00:34:36;97723.00;;;5.29;100.00
9139;BME280;4604;48.616;9.548;2023-11-18T00:37:03;97731.50;;;5.33;100.00
9139;BME280;4604;48.616;9.548;2023-11-18T00:39:30;97730.75;;;5.31;100.00
9139;BME280;4604;48.616;9.548;2023-11-18T00:41:57;97727.03;;;5.35;100.00
9139;BME280;4604;48.616;9.548;2023-11-18T00:44:25;97734.81;;;5.36;100.00
9139;BME280;4604;48.616;9.548;2023-11-18T00:46:51;97738.09;;;5.40;100.00
9139;BME280;4604;48.616;9.548;2023-11-18T00:49:18;97740.53;;;5.43;100.00
9139;BME280;4604;48.616;9.548;2023-11-18T00:51:44;97741.34;;;5.44;100.00
9139;BME280;4604;48.616;9.548;2023-11-18T00:54:11;97737.31;;;5.38;100.00
9139;BME280;4604;48.616;9.548;2023-11-18T00:56:38;97743.91;;;5.45;100.00
9139;BME280;4604;48.616;9.548;2023-11-18T00:59:05;97737.06;;;5.43;100.00
9139;BME280;4604;48.616;9.548;2023-11-18T01:01:33;97739.44;;;5.31;100.00
9139;BME280;4604;48.616;9.548;2023-11-18T01:03:59;97740.88;;;5.37;100.00
9139;BME280;4604;48.616;9.548;2023-11-18T01:06:26;97730.84;;;5.29;100.00
9139;BME280;4604;48.616;9.548;2023-11-18T01:08:53;97731.19;;;5.23;100.00
9139;BME280;4604;48.616;9.548;2023-11-18T01:11:19;97729.41;;;5.24;100.00
9139;BME280;4604;48.616;9.548;2023-11-18T01:13:48;97743.84;;;5.31;100.00
9139;BME280;4604;48.616;9.548;2023-11-18T01:16:15;97744.28;;;5.23;100.00
9139;BME280;4604;48.616;9.548;2023-11-18T01:18:43;97746.72;;;5.26;100.00
9139;BME280;4604;48.616;9.548;2023-11-18T01:21:10;97740.88;;;5.21;100.00
9139;BME280;4604;48.616;9.548;2023-11-18T01:23:36;97738.63;;;5.15;100.00
9139;BME280;4604;48.616;9.548;2023-11-18T01:26:04;97748.31;;;5.29;100.00
9139;BME280;4604;48.616;9.548;2023-11-18T01:28:31;97745.63;;;5.30;100.00
9139;BME280;4604;48.616;9.548;2023-11-18T01:31:01;97746.28;;;5.34;100.00
9139;BME280;4604;48.616;9.548;2023-11-18T01:33:29;97748.41;;;5.27;100.00
9139;BME280;4604;48.616;9.548;2023-11-18T01:35:57;97747.06;;;5.20;100.00
9139;BME280;4604;48.616;9.548;2023-11-18T01:38:23;97753.91;;;5.23;100.00
9139;BME280;4604;48.616;9.548;2023-11-18T01:40:51;97762.06;;;5.17;100.00
9139;BME280;4604;48.616;9.548;2023-11-18T01:43:18;97760.03;;;5.22;100.00
9139;BME280;4604;48.616;9.548;2023-11-18T01:45:45;97765.47;;;5.19;100.00
9139;BME280;4604;48.616;9.548;2023-11-18T01:48:13;97767.56;;;5.28;100.00
9139;BME280;4604;48.616;9.548;2023-11-18T01:50:41;97768.00;;;5.20;100.00
9139;BME280;4604;48.616;9.548;2023-11-18T01:53:11;97772.28;;;5.37;100.00
9139;BME280;4604;48.616;9.548;2023-11-18T01:55:39;97766.47;;;5.32;100.00
9139;BME280;4604;48.616;9.548;2023-11-18T01:58:06;97764.38;;;5.23;100.00
9139;BME280;4604;48.616;9.548;2023-11-18T02:00:36;97763.09;;;5.30;100.00
9139;BME280;4604;48.616;9.548;2023-11-18T02:03:04;97751.25;;;5.39;100.00
9139;BME280;4604;48.616;9.548;2023-11-18T02:05:31;97764.13;;;5.27;100.00
9139;BME280;4604;48.616;9.548;2023-11-18T02:08:00;97757.72;;;5.17;100.00
9139;BME280;4604;48.616;9.548;2023-11-18T02:10:31;97758.28;;;5.06;100.00
9139;BME280;4604;48.616;9.548;2023-11-18T02:13:07;97752.72;;;5.12;100.00
9139;BME280;4604;48.616;9.548;2023-11-18T02:15:38;97755.09;;;5.17;100.00
9139;BME280;4604;48.616;9.548;2023-11-18T02:18:06;97756.50;;;5.23;100.00
9139;BME280;4604;48.616;9.548;2023-11-18T02:20:35;97765.19;;;5.23;100.00
9139;BME280;4604;48.616;9.548;2023-11-18T02:23:01;97758.28;;;5.22;100.00
9139;BME280;4604;48.616;9.548;2023-11-18T02:25:30;97758.53;;;5.18;100.00
9139;BME280;4604;48.616;9.548;2023-11-18T02:28:00;97760.91;;;5.22;100.00
9139;BME280;4604;48.616;9.548;2023-11-18T02:30:27;97761.75;;;5.23;100.00
9139;BME280;4604;48.616;9.548;2023-11-18T02:32:59;97764.88;;;5.13;100.00
9139;BME280;4604;48.616;9.548;2023-11-18T02:35:29;97757.34;;;5.23;100.00
9139;BME280;4604;48.616;9.548;2023-11-18T02:37:58;97758.28;;;5.22;100.00
9139;BME280;4604;48.616;9.548;2023-11-18T02:40:31;97762.59;;;5.23;100.00
9139;BME280;4604;48.616;9.548;2023-11-18T02:43:02;97759.97;;;5.23;100.00
9139;BME280;4604;48.616;9.548;2023-11-18T02:45:31;97757.88;;;5.30;100.00
9139;BME280;4604;48.616;9.548;2023-11-18T02:47:58;97767.56;;;5.28;100.00
9139;BME280;4604;48.616;9.548;2023-11-18T02:50:25;97759.72;;;5.28;100.00
9139;BME280;4604;48.616;9.548;2023-11-18T02:52:53;97746.06;;;5.23;100.00
9139;BME280;4604;48.616;9.548;2023-11-18T02:55:20;97757.44;;;5.38;100.00
9139;BME280;4604;48.616;9.548;2023-11-18T02:57:48;97762.66;;;5.38;100.00
9139;BME280;4604;48.616;9.548;2023-11-18T03:00:18;97764.44;;;5.37;100.00
9139;BME280;4604;48.616;9.548;2023-11-18T03:02:47;97764.84;;;5.45;100.00
9139;BME280;4604;48.616;9.548;2023-11-18T03:05:15;97763.06;;;5.46;100.00
9139;BME280;4604;48.616;9.548;2023-11-18T03:07:42;97753.72;;;5.42;100.00
9139;BME280;4604;48.616;9.548;2023-11-18T03:10:09;97758.09;;;5.41;100.00
9139;BME280;4604;48.616;9.548;2023-11-18T03:12:45;97754.22;;;5.32;100.00
9139;BME280;4604;48.616;9.548;2023-11-18T03:15:12;97755.84;;;5.35;100.00
9139;BME280;4604;48.616;9.548;2023-11-18T03:17:43;97751.69;;;5.31;100.00
9139;BME280;4604;48.616;9.548;2023-11-18T03:20:11;97750.09;;;5.28;100.00
9139;BME280;4604;48.616;9.548;2023-11-18T03:22:39;97752.69;;;5.28;100.00
9139;BME280;4604;48.616;9.548;2023-11-18T03:25:07;97751.69;;;5.31;100.00
9139;BME280;4604;48.616;9.548;2023-11-18T03:27:34;97759.47;;;5.32;100.00
9139;BME280;4604;48.616;9.548;2023-11-18T03:30:01;97753.38;;;5.32;100.00
9139;BME280;4604;48.616;9.548;2023-11-18T03:32:28;97751.03;;;5.27;100.00
9139;BME280;4604;48.616;9.548;2023-11-18T03:34:56;97747.56;;;5.27;100.00
9139;BME280;4604;48.616;9.548;2023-11-18T03:37:24;97749.00;;;5.32;100.00
9139;BME280;4604;48.616;9.548;2023-11-18T03:39:51;97755.75;;;5.36;100.00
9139;BME280;4604;48.616;9.548;2023-11-18T03:42:18;97759.09;;;5.39;100.00
9139;BME280;4604;48.616;9.548;2023-11-18T03:44:44;97760.63;;;5.43;100.00
9139;BME280;4604;48.616;9.548;2023-11-18T03:47:12;97757.16;;;5.42;100.00
9139;BME280;4604;48.616;9.548;2023-11-18T03:49:39;97758.00;;;5.43;100.00
9139;BME280;4604;48.616;9.548;2023-11-18T03:52:07;97766.44;;;5.48;100.00
9139;BME280;4604;48.616;9.548;2023-11-18T03:54:34;97760.44;;;5.46;100.00
9139;BME280;4604;48.616;9.548;2023-11-18T03:57:00;97763.81;;;5.48;100.00
9139;BME280;4604;48.616;9.548;2023-11-18T03:59:27;97769.81;;;5.50;100.00
9139;BME280;4604;48.616;9.548;2023-11-18T04:01:53;97778.50;;;5.50;100.00
9139;BME280;4604;48.616;9.548;2023-11-18T04:04:20;97769.81;;;5.50;100.00
9139;BME280;4604;48.616;9.548;2023-11-18T04:06:46;97774.13;;;5.51;100.00
9139;BME280;4604;48.616;9.548;2023-11-18T04:09:14;97767.13;;;5.51;100.00
9139;BME280;4604;48.616;9.548;2023-11-18T04:11:41;97774.81;;;5.54;100.00
9139;BME280;4604;48.616;9.548;2023-11-18T04:14:10;97770.31;;;5.56;100.00
9139;BME280;4604;48.616;9.548;2023-11-18T04:16:37;97766.00;;;5.55;100.00
9139;BME280;4604;48.616;9.548;2023-11-18T04:19:04;97764.41;;;5.53;100.00
9139;BME280;4604;48.616;9.548;2023-11-18T04:21:31;97753.16;;;5.51;100.00
9139;BME280;4604;48.616;9.548;2023-11-18T04:23:58;97776.59;;;5.54;100.00
9139;BME280;4604;48.616;9.548;2023-11-18T04:26:26;97770.47;;;5.53;100.00
9139;BME280;4604;48.616;9.548;2023-11-18T04:28:52;97768.81;;;5.52;100.00
9139;BME280;4604;48.616;9.548;2023-11-18T04:31:19;97765.34;;;5.52;100.00
9139;BME280;4604;48.616;9.548;2023-11-18T04:33:46;97771.34;;;5.54;100.00
9139;BME280;4604;48.616;9.548;2023-11-18T04:36:13;97772.00;;;5.57;100.00
9139;BME280;4604;48.616;9.548;2023-11-18T04:38:41;97770.31;;;5.56;100.00
9139;BME280;4604;48.616;9.548;2023-11-18T04:41:09;97768.63;;;5.55;100.00
9139;BME280;4604;48.616;9.548;2023-11-18T04:43:37;97768.53;;;5.57;100.00
9139;BME280;4604;48.616;9.548;2023-11-18T04:46:06;97766.19;;;5.52;100.00
9139;BME280;4604;48.616;9.548;2023-11-18T04:48:32;97758.16;;;5.55;100.00
9139;BME280;4604;48.616;9.548;2023-11-18T04:51:00;97761.53;;;5.57;100.00
9139;BME280;4604;48.616;9.548;2023-11-18T04:53:26;97757.25;;;5.56;100.00
9139;BME280;4604;48.616;9.548;2023-11-18T04:55:53;97757.13;;;5.58;100.00
9139;BME280;4604;48.616;9.548;2023-11-18T04:58:20;97755.47;;;5.57;100.00
9139;BME280;4604;48.616;9.548;2023-11-18T05:00:48;97763.50;;;5.54;100.00
9139;BME280;4604;48.616;9.548;2023-11-18T05:03:16;97763.38;;;5.55;100.00
9139;BME280;4604;48.616;9.548;2023-11-18T05:05:43;97754.03;;;5.51;100.00
9139;BME280;4604;48.616;9.548;2023-11-18T05:08:18;97759.94;;;5.55;100.00
9139;BME280;4604;48.616;9.548;2023-11-18T05:10:46;97759.94;;;5.55;100.00
9139;BME280;4604;48.616;9.548;2023-11-18T05:13:13;97754.94;;;5.50;100.00
9139;BME280;4604;48.616;9.548;2023-11-18T05:15:42;97751.50;;;5.50;100.00
9139;BME280;4604;48.616;9.548;2023-11-18T05:18:11;97750.09;;;5.44;100.00
9139;BME280;4604;48.616;9.548;2023-11-18T05:20:40;97743.13;;;5.43;100.00
9139;BME280;4604;48.616;9.548;2023-11-18T05:23:06;97752.78;;;5.43;100.00
9139;BME280;4604;48.616;9.548;2023-11-18T05:25:35;97750.59;;;5.35;100.00
9139;BME280;4604;48.616;9.548;2023-11-18T05:28:02;97762.84;;;5.34;100.00
9139;BME280;4604;48.616;9.548;2023-11-18T05:30:28;97763.16;;;5.28;100.00
9139;BME280;4604;48.616;9.548;2023-11-18T05:32:56;97757.16;;;5.26;100.00
9139;BME280;4604;48.616;9.548;2023-11-18T05:35:25;97758.13;;;5.25;100.00
9139;BME280;4604;48.616;9.548;2023-11-18T05:37:54;97751.28;;;5.23;100.00
9139;BME280;4604;48.616;9.548;2023-11-18T05:40:20;97750.69;;;5.18;100.00
9139;BME280;4604;48.616;9.548;2023-11-18T05:42:48;97756.78;;;5.18;100.00
9139;BME280;4604;48.616;9.548;2023-11-18T05:45:17;97758.44;;;5.19;100.00
9139;BME280;4604;48.616;9.548;2023-11-18T05:47:53;97765.38;;;5.20;100.00
9139;BME280;4604;48.616;9.548;2023-11-18T05:50:20;97751.59;;;5.17;100.00
9139;BME280;4604;48.616;9.548;2023-11-18T05:52:47;97749.25;;;5.12;100.00
9139;BME280;4604;48.616;9.548;2023-11-18T05:55:14;97750.88;;;5.14;100.00
9139;BME280;4604;48.616;9.548;2023-11-18T05:57:41;97743.09;;;5.13;100.00
9139;BME280;4604;48.616;9.548;2023-11-18T06:00:11;97747.25;;;5.17;100.00
9139;BME280;4604;48.616;9.548;2023-11-18T06:02:40;97749.34;;;5.10;100.00
9139;BME280;4604;48.616;9.548;2023-11-18T06:05:08;97757.28;;;5.09;100.00
9139;BME280;4604;48.616;9.548;2023-11-18T06:07:35;97752.13;;;5.07;100.00
9139;BME280;4604;48.616;9.548;2023-11-18T06:10:03;97746.03;;;5.07;100.00
9139;BME280;4604;48.616;9.548;2023-11-18T06:12:31;97745.19;;;5.06;100.00
9139;BME280;4604;48.616;9.548;2023-11-18T06:14:58;97741.75;;;5.06;100.00
9139;BME280;4604;48.616;9.548;2023-11-18T06:17:25;97746.03;;;5.07;100.00
9139;BME280;4604;48.616;9.548;2023-11-18T06:19:53;97739.91;;;5.08;100.00
9139;BME280;4604;48.616;9.548;2023-11-18T06:22:19;97737.19;;;5.09;100.00
9139;BME280;4604;48.616;9.548;2023-11-18T06:24:46;97735.75;;;5.04;100.00
9139;BME280;4604;48.616;9.548;2023-11-18T06:27:14;97723.44;;;5.06;100.00
9139;BME280;4604;48.616;9.548;2023-11-18T06:29:41;97720.13;;;5.02;100.00
9139;BME280;4604;48.616;9.548;2023-11-18T06:32:07;97723.69;;;5.01;100.00
9139;BME280;4604;48.616;9.548;2023-11-18T06:34:34;97728.25;;;4.98;100.00
9139;BME280;4604;48.616;9.548;2023-11-18T06:37:01;97739.03;;;4.91;100.00
9139;BME280;4604;48.616;9.548;2023-11-18T06:39:29;97729.41;;;4.92;100.00
9139;BME280;4604;48.616;9.548;2023-11-18T06:41:55;97735.78;;;4.88;100.00
9139;BME280;4604;48.616;9.548;2023-11-18T06:44:24;97745.34;;;4.87;100.00
9139;BME280;4604;48.616;9.548;2023-11-18T06:46:51;97742.69;;;4.89;100.00
9139;BME280;4604;48.616;9.548;2023-11-18T06:49:17;97755.00;;;4.87;100.00
9139;BME280;4604;48.616;9.548;2023-11-18T06:51:44;97751.84;;;4.80;100.00
9139;BME280;4604;48.616;9.548;2023-11-18T06:54:11;97754.63;;;4.77;100.00
9139;BME280;4604;48.616;9.548;2023-11-18T06:56:40;97758.03;;;4.79;100.00
9139;BME280;4604;48.616;9.548;2023-11-18T06:59:08;97759.69;;;4.80;100.00
9139;BME280;4604;48.616;9.548;2023-11-18T07:01:36;97753.63;;;4.80;100.00
9139;BME280;4604;48.616;9.548;2023-11-18T07:04:06;97757.78;;;4.84;100.00
9139;BME280;4604;48.616;9.548;2023-11-18T07:06:34;97753.63;;;4.80;100.00
9139;BME280;4604;48.616;9.548;2023-11-18T07:09:04;97751.53;;;4.86;100.00
9139;BME280;4604;48.616;9.548;2023-11-18T07:11:37;97756.75;;;4.86;100.00
9139;BME280;4604;48.616;9.548;2023-11-18T07:14:04;97756.69;;;4.88;100.00
9139;BME280;4604;48.616;9.548;2023-11-18T07:16:32;97760.75;;;4.93;100.00
9139;BME280;4604;48.616;9.548;2023-11-18T07:19:00;97762.84;;;5.03;100.00
9139;BME280;4604;48.616;9.548;2023-11-18T07:21:28;97759.38;;;5.18;100.00
9139;BME280;4604;48.616;9.548;2023-11-18T07:23:55;97759.31;;;5.20;100.00
9139;BME280;4604;48.616;9.548;2023-11-18T07:26:22;97761.06;;;5.19;100.00
9139;BME280;4604;48.616;9.548;2023-11-18T07:28:49;97776.63;;;5.22;100.00
9139;BME280;4604;48.616;9.548;2023-11-18T07:31:17;97774.75;;;5.24;100.00
9139;BME280;4604;48.616;9.548;2023-11-18T07:33:44;97777.09;;;5.29;100.00
9139;BME280;4604;48.616;9.548;2023-11-18T07:36:15;97776.69;;;5.36;100.00
9139;BME280;4604;48.616;9.548;2023-11-18T07:38:42;97785.72;;;5.47;100.00
9139;BME280;4604;48.616;9.548;2023-11-18T07:41:09;97791.53;;;5.52;100.00
9139;BME280;4604;48.616;9.548;2023-11-18T07:43:48;97778.59;;;5.65;100.00
9139;BME280;4604;48.616;9.548;2023-11-18T07:46:15;97769.19;;;5.76;100.00
9139;BME280;4604;48.616;9.548;2023-11-18T07:48:41;97778.75;;;5.92;100.00
9139;BME280;4604;48.616;9.548;2023-11-18T07:51:08;97773.41;;;6.09;100.00
9139;BME280;4604;48.616;9.548;2023-11-18T07:53:39;97775.31;;;6.21;100.00
9139;BME280;4604;48.616;9.548;2023-11-18T07:56:06;97765.97;;;6.32;100.00
9139;BME280;4604;48.616;9.548;2023-11-18T07:58:37;97761.94;;;6.40;100.00
9139;BME280;4604;48.616;9.548;2023-11-18T08:01:04;97758.69;;;6.51;100.00
9139;BME280;4604;48.616;9.548;2023-11-18T08:03:32;97759.69;;;6.63;100.00
9139;BME280;4604;48.616;9.548;2023-11-18T08:05:59;97753.25;;;6.69;100.00
9139;BME280;4604;48.616;9.548;2023-11-18T08:08:27;97747.72;;;6.73;100.00
9139;BME280;4604;48.616;9.548;2023-11-18T08:10:55;97743.94;;;6.77;100.00
9139;BME280;4604;48.616;9.548;2023-11-18T08:13:21;97748.91;;;6.82;100.00
9139;BME280;4604;48.616;9.548;2023-11-18T08:15:49;97753.25;;;6.83;100.00
9139;BME280;4604;48.616;9.548;2023-11-18T08:18:15;97767.00;;;6.86;100.00
9139;BME280;4604;48.616;9.548;2023-11-18T08:20:43;97765.88;;;6.91;100.00
9139;BME280;4604;48.616;9.548;2023-11-18T08:23:10;97756.84;;;6.95;100.00
9139;BME280;4604;48.616;9.548;2023-11-18T08:25:39;97761.94;;;6.98;100.00
9139;BME280;4604;48.616;9.548;2023-11-18T08:28:08;97758.00;;;7.05;100.00
9139;BME280;4604;48.616;9.548;2023-11-18T08:30:36;97773.53;;;7.08;100.00
9139;BME280;4604;48.616;9.548;2023-11-18T08:33:04;97777.94;;;7.07;100.00
9139;BME280;4604;48.616;9.548;2023-11-18T08:35:34;97769.66;;;7.14;100.00
9139;BME280;4604;48.616;9.548;2023-11-18T08:38:00;97779.03;;;7.18;100.00
9139;BME280;4604;48.616;9.548;2023-11-18T08:40:28;97769.00;;;7.24;100.00
9139;BME280;4604;48.616;9.548;2023-11-18T08:42:55;97759.44;;;7.23;100.00
9139;BME280;4604;48.616;9.548;2023-11-18T08:45:25;97759.22;;;7.26;100.00
9139;BME280;4604;48.616;9.548;2023-11-18T08:47:54;97754.09;;;7.25;100.00
9139;BME280;4604;48.616;9.548;2023-11-18T08:50:22;97763.06;;;7.35;98.76
9139;BME280;4604;48.616;9.548;2023-11-18T08:52:50;97770.38;;;7.30;99.40
9139;BME280;4604;48.616;9.548;2023-11-18T08:55:20;97757.47;;;7.27;100.00
9139;BME280;4604;48.616;9.548;2023-11-18T08:57:51;97759.53;;;7.22;100.00
9139;BME280;4604;48.616;9.548;2023-11-18T09:00:26;97745.22;;;7.13;100.00
9139;BME280;4604;48.616;9.548;2023-11-18T09:03:10;97751.22;;;7.15;100.00
9139;BME280;4604;48.616;9.548;2023-11-18T09:05:43;97767.09;;;7.26;100.00
9139;BME280;4604;48.616;9.548;2023-11-18T09:08:25;97766.69;;;7.20;100.00
9139;BME280;4604;48.616;9.548;2023-11-18T09:10:52;97753.72;;;7.17;100.00
9139;BME280;4604;48.616;9.548;2023-11-18T09:13:21;97751.66;;;7.22;100.00
9139;BME280;4604;48.616;9.548;2023-11-18T09:15:49;97748.94;;;7.23;100.00
9139;BME280;4604;48.616;9.548;2023-11-18T09:18:15;97746.34;;;7.36;100.00
9139;BME280;4604;48.616;9.548;2023-11-18T09:20:43;97745.47;;;7.50;100.00
9139;BME280;4604;48.616;9.548;2023-11-18T09:23:10;97745.09;;;7.56;100.00
9139;BME280;4604;48.616;9.548;2023-11-18T09:25:38;97755.69;;;7.55;100.00
9139;BME280;4604;48.616;9.548;2023-11-18T09:28:05;97770.63;;;7.67;100.00
9139;BME280;4604;48.616;9.548;2023-11-18T09:30:36;97757.41;;;7.68;100.00
9139;BME280;4604;48.616;9.548;2023-11-18T09:33:05;97751.91;;;7.59;100.00
9139;BME280;4604;48.616;9.548;2023-11-18T09:35:39;97759.00;;;7.71;100.00
9139;BME280;4604;48.616;9.548;2023-11-18T09:38:06;97764.09;;;7.60;99.76
9139;BME280;4604;48.616;9.548;2023-11-18T09:40:35;97766.25;;;7.80;98.88
9139;BME280;4604;48.616;9.548;2023-11-18T09:43:09;97774.28;;;7.91;98.44
9139;BME280;4604;48.616;9.548;2023-11-18T09:45:39;97772.72;;;8.02;95.84
9139;BME280;4604;48.616;9.548;2023-11-18T09:48:07;97767.75;;;7.97;90.55
9139;BME280;4604;48.616;9.548;2023-11-18T09:50:35;97762.56;;;8.10;91.53
9139;BME280;4604;48.616;9.548;2023-11-18T09:53:07;97767.81;;;8.23;89.83
9139;BME280;4604;48.616;9.548;2023-11-18T09:55:41;97759.09;;;8.22;89.42
9139;BME280;4604;48.616;9.548;2023-11-18T09:58:15;97766.56;;;8.28;85.44
9139;BME280;4604;48.616;9.548;2023-11-18T10:00:42;97757.59;;;8.31;85.10
9139;BME280;4604;48.616;9.548;2023-11-18T10:03:12;97753.97;;;8.46;86.25
9139;BME280;4604;48.616;9.548;2023-11-18T10:05:41;97751.22;;;8.48;87.21
9139;BME280;4604;48.616;9.548;2023-11-18T10:08:08;97737.75;;;8.52;87.55
9139;BME280;4604;48.616;9.548;2023-11-18T10:10:35;97740.91;;;8.57;83.08
9139;BME280;4604;48.616;9.548;2023-11-18T10:13:03;97749.75;;;8.56;80.88
9139;BME280;4604;48.616;9.548;2023-11-18T10:15:33;97751.31;;;8.72;80.37
9139;BME280;4604;48.616;9.548;2023-11-18T10:18:02;97748.94;;;8.56;74.19
9139;BME280;4604;48.616;9.548;2023-11-18T10:20:47;97741.00;;;8.69;74.67
9139;BME280;4604;48.616;9.548;2023-11-18T10:23:17;97741.94;;;8.81;74.57
9139;BME280;4604;48.616;9.548;2023-11-18T10:25:46;97739.72;;;8.74;74.00
9139;BME280;4604;48.616;9.548;2023-11-18T10:28:23;97737.28;;;8.84;75.40
9139;BME280;4604;48.616;9.548;2023-11-18T10:30:52;97745.59;;;8.91;72.99
9139;BME280;4604;48.616;9.548;2023-11-18T10:33:19;97739.31;;;8.81;69.31
9139;BME280;4604;48.616;9.548;2023-11-18T10:35:52;97735.72;;;8.82;69.78
9139;BME280;4604;48.616;9.548;2023-11-18T10:38:21;97730.69;;;8.78;69.67
9139;BME280;4604;48.616;9.548;2023-11-18T10:40:52;97732.06;;;8.71;68.47
9139;BME280;4604;48.616;9.548;2023-11-18T10:43:20;97733.53;;;8.75;67.99
9139;BME280;4604;48.616;9.548;2023-11-18T10:45:50;97733.44;;;8.64;68.14
9139;BME280;4604;48.616;9.548;2023-11-18T10:48:17;97742.38;;;8.62;68.41
9139;BME280;4604;48.616;9.548;2023-11-18T10:50:47;97736.59;;;8.69;68.98
9139;BME280;4604;48.616;9.548;2023-11-18T10:53:17;97749.44;;;8.74;70.85
9139;BME280;4604;48.616;9.548;2023-11-18T10:55:44;97737.63;;;8.79;70.60
9139;BME280;4604;48.616;9.548;2023-11-18T10:58:11;97731.63;;;8.77;70.57
9139;BME280;4604;48.616;9.548;2023-11-18T11:00:49;97742.28;;;8.76;67.83
9139;BME280;4604;48.616;9.548;2023-11-18T11:03:18;97726.47;;;8.63;66.52
9139;BME280;4604;48.616;9.548;2023-11-18T11:05:48;97713.22;;;8.65;68.90
9139;BME280;4604;48.616;9.548;2023-11-18T11:08:17;97722.06;;;8.76;67.47
9139;BME280;4604;48.616;9.548;2023-11-18T11:10:45;97715.31;;;8.72;66.71
9139;BME280;4604;48.616;9.548;2023-11-18T11:13:14;97719.97;;;8.69;66.96
9139;BME280;4604;48.616;9.548;2023-11-18T11:15:43;97703.53;;;8.65;66.67
9139;BME280;4604;48.616;9.548;2023-11-18T11:18:12;97711.75;;;8.73;65.95
9139;BME280;4604;48.616;9.548;2023-11-18T11:20:59;97712.69;;;8.72;65.00
9139;BME280;4604;48.616;9.548;2023-11-18T11:23:44;97714.91;;;8.66;61.36
9139;BME280;4604;48.616;9.548;2023-11-18T11:26:26;97714.16;;;8.76;62.69
9139;BME280;4604;48.616;9.548;2023-11-18T11:29:03;97719.16;;;8.92;64.37
9139;BME280;4604;48.616;9.548;2023-11-18T11:31:32;97711.78;;;8.97;64.80
9139;BME280;4604;48.616;9.548;2023-11-18T11:34:02;97710.50;;;9.03;65.24
9139;BME280;4604;48.616;9.548;2023-11-18T11:36:36;97718.47;;;9.14;66.92
9139;BME280;4604;48.616;9.548;2023-11-18T11:39:06;97712.03;;;9.18;68.45
9139;BME280;4604;48.616;9.548;2023-11-18T11:41:36;97710.63;;;9.26;69.60
9139;BME280;4604;48.616;9.548;2023-11-18T11:44:03;97700.81;;;9.28;69.40
9139;BME280;4604;48.616;9.548;2023-11-18T11:46:31;97703.72;;;9.36;69.54
9139;BME280;4604;48.616;9.548;2023-11-18T11:49:03;97700.09;;;9.50;71.11
9139;BME280;4604;48.616;9.548;2023-11-18T11:51:41;97690.53;;;9.60;72.55
9139;BME280;4604;48.616;9.548;2023-11-18T11:54:18;97684.94;;;9.64;71.15
9139;BME280;4604;48.616;9.548;2023-11-18T11:56:48;97683.03;;;9.67;70.37
9139;BME280;4604;48.616;9.548;2023-11-18T11:59:34;97685.41;;;9.58;65.67
9139;BME280;4604;48.616;9.548;2023-11-18T12:02:03;97682.16;;;9.55;64.25
9139;BME280;4604;48.616;9.548;2023-11-18T12:04:33;97669.59;;;9.58;65.06
9139;BME280;4604;48.616;9.548;2023-11-18T12:07:03;97663.47;;;9.58;65.47
9139;BME280;4604;48.616;9.548;2023-11-18T12:09:32;97669.13;;;9.64;67.81
9139;BME280;4604;48.616;9.548;2023-11-18T12:12:04;97660.25;;;9.65;68.08
9139;BME280;4604;48.616;9.548;2023-11-18T12:14:49;97658.47;;;9.66;67.79
9139;BME280;4604;48.616;9.548;2023-11-18T12:17:16;97664.09;;;9.61;67.63
9139;BME280;4604;48.616;9.548;2023-11-18T12:19:47;97655.06;;;9.53;67.21
9139;BME280;4604;48.616;9.548;2023-11-18T12:22:15;97655.78;;;9.55;67.08
9139;BME280;4604;48.616;9.548;2023-11-18T12:27:56;97642.47;;;9.45;66.83
9139;BME280;4604;48.616;9.548;2023-11-18T12:30:38;97633.72;;;9.45;67.34
9139;BME280;4604;48.616;9.548;2023-11-18T12:33:09;97625.72;;;9.46;67.42
9139;BME280;4604;48.616;9.548;2023-11-18T12:35:57;97621.13;;;9.37;68.47
9139;BME280;4604;48.616;9.548;2023-11-18T12:38:56;97609.13;;;9.33;69.69
9139;BME280;4604;48.616;9.548;2023-11-18T12:41:34;97595.56;;;9.26;70.76
9139;BME280;4604;48.616;9.548;2023-11-18T12:44:14;97606.59;;;9.31;72.11
9139;BME280;4604;48.616;9.548;2023-11-18T12:46:50;97599.72;;;9.41;72.10
9139;BME280;4604;48.616;9.548;2023-11-18T12:49:19;97594.16;;;9.33;71.89
9139;BME280;4604;48.616;9.548;2023-11-18T12:51:49;97577.13;;;9.15;72.96
9139;BME280;4604;48.616;9.548;2023-11-18T12:54:17;97591.00;;;9.17;74.29
9139;BME280;4604;48.616;9.548;2023-11-18T12:56:44;97584.06;;;9.16;74.71
9139;BME280;4604;48.616;9.548;2023-11-18T12:59:15;97579.41;;;9.19;74.30
9139;BME280;4604;48.616;9.548;2023-11-18T13:01:43;97583.72;;;9.20;73.62
9139;BME280;4604;48.616;9.548;2023-11-18T13:04:16;97582.00;;;9.08;73.16
9139;BME280;4604;48.616;9.548;2023-11-18T13:06:42;97575.41;;;9.03;74.66
9139;BME280;4604;48.616;9.548;2023-11-18T13:09:09;97574.59;;;8.89;75.30
9139;BME280;4604;48.616;9.548;2023-11-18T13:11:36;97578.53;;;8.84;76.21
9139;BME280;4604;48.616;9.548;2023-11-18T13:14:07;97572.88;;;8.77;77.30
9139;BME280;4604;48.616;9.548;2023-11-18T13:16:35;97576.66;;;8.73;77.92
9139;BME280;4604;48.616;9.548;2023-11-18T13:19:02;97582.91;;;8.72;79.27
9139;BME280;4604;48.616;9.548;2023-11-18T13:21:30;97577.34;;;8.64;80.29
9139;BME280;4604;48.616;9.548;2023-11-18T13:24:02;97589.72;;;8.74;79.98
9139;BME280;4604;48.616;9.548;2023-11-18T13:26:30;97584.28;;;8.65;79.62
9139;BME280;4604;48.616;9.548;2023-11-18T13:28:58;97570.69;;;8.71;78.47
9139;BME280;4604;48.616;9.548;2023-11-18T13:31:27;97572.53;;;8.57;79.88
9139;BME280;4604;48.616;9.548;2023-11-18T13:33:55;97567.91;;;8.48;80.20
9139;BME280;4604;48.616;9.548;2023-11-18T13:36:23;97566.69;;;8.41;80.51